createdAt,value
2018-03-04T00:00:13.804Z,12.47
2018-03-04T00:02:41.461Z,13.68
2018-03-04T00:05:09.076Z,12.73
2018-03-04T00:07:37.428Z,17.40
2018-03-04T00:10:05.853Z,16.12
2018-03-04T00:12:33.472Z,15.27
2018-03-04T00:15:01.129Z,14.63
2018-03-04T00:17:28.745Z,17.67
2018-03-04T00:19:57.097Z,16.17
2018-03-04T00:22:36.608Z,13.00
2018-03-04T00:25:05.252Z,15.97
2018-03-04T00:27:32.864Z,17.90
2018-03-04T00:30:01.127Z,15.57
2018-03-04T00:32:29.557Z,16.67
2018-03-04T00:34:57.381Z,14.70
2018-03-04T00:37:24.997Z,17.73
2018-03-04T00:39:52.669Z,14.90
2018-03-04T00:42:20.509Z,16.70
2018-03-04T00:44:48.268Z,16.75
2018-03-04T00:47:15.884Z,15.47
2018-03-04T00:49:44.196Z,15.60
2018-03-04T00:52:12.567Z,15.63
2018-03-04T00:54:40.259Z,16.57
2018-03-04T00:57:08.525Z,14.47
2018-03-04T00:59:36.393Z,16.30
2018-03-04T01:02:04.055Z,17.47
2018-03-04T01:04:31.691Z,16.40
2018-03-04T01:06:59.348Z,15.33
2018-03-04T01:09:26.972Z,14.80
2018-03-04T01:11:54.628Z,15.13
2018-03-04T01:14:22.244Z,14.90
2018-03-04T01:16:49.992Z,17.90
2018-03-04T01:19:17.609Z,17.95
2018-03-04T01:21:45.233Z,16.73
2018-03-04T01:24:12.913Z,17.75
2018-03-04T01:26:41.336Z,13.17
2018-03-04T01:29:08.991Z,17.10
2018-03-04T01:31:36.605Z,14.47
2018-03-04T01:34:04.300Z,18.42
2018-03-04T01:36:31.921Z,13.83
2018-03-04T01:38:59.580Z,17.65
2018-03-04T01:41:27.969Z,18.77
2018-03-04T01:43:56.397Z,14.73
2018-03-04T01:46:24.017Z,20.75
2018-03-04T01:48:52.434Z,18.07
2018-03-04T01:51:20.071Z,15.27
2018-03-04T01:53:47.768Z,13.80
2018-03-04T01:56:15.470Z,17.95
2018-03-04T01:58:43.908Z,17.15
2018-03-04T02:01:11.757Z,19.63
2018-03-04T02:03:40.077Z,20.27
2018-03-04T02:06:07.736Z,18.48
2018-03-04T02:08:35.344Z,17.62
2018-03-04T02:11:03.568Z,11.25
2018-03-04T02:13:31.222Z,19.17
2018-03-04T02:15:58.840Z,19.93
2018-03-04T02:18:26.496Z,20.23
2018-03-04T02:20:54.307Z,17.17
2018-03-04T02:23:22.061Z,19.57
2018-03-04T02:25:50.427Z,21.52
2018-03-04T02:28:18.043Z,19.65
2018-03-04T02:30:46.364Z,21.30
2018-03-04T02:33:14.026Z,20.60
2018-03-04T02:35:41.644Z,19.07
2018-03-04T02:38:09.304Z,20.90
2018-03-04T02:40:36.920Z,18.57
2018-03-04T02:43:04.585Z,20.30
2018-03-04T02:45:32.886Z,14.73
2018-03-04T02:48:00.510Z,21.10
2018-03-04T02:50:28.165Z,19.40
2018-03-04T02:52:56.476Z,19.70
2018-03-04T02:55:24.129Z,21.47
2018-03-04T02:57:52.512Z,15.80
2018-03-04T03:00:20.934Z,17.23
2018-03-04T03:02:48.551Z,14.83
2018-03-04T03:05:16.210Z,19.73
2018-03-04T03:07:43.823Z,17.20
2018-03-04T03:10:11.826Z,20.70
2018-03-04T03:12:39.454Z,16.08
2018-03-04T03:15:07.104Z,20.07
2018-03-04T03:19:54.982Z,18.65
2018-03-04T03:22:22.611Z,20.67
2018-03-04T03:24:50.280Z,16.77
2018-03-04T03:27:17.901Z,19.00
2018-03-04T03:29:45.553Z,15.10
2018-03-04T03:32:13.210Z,16.33
2018-03-04T03:34:41.639Z,21.17
2018-03-04T03:37:09.294Z,20.30
2018-03-04T03:39:36.915Z,21.00
2018-03-04T03:42:04.532Z,17.97
2018-03-04T03:44:32.193Z,19.95
2018-03-04T03:46:59.809Z,17.70
2018-03-04T03:49:27.517Z,19.90
2018-03-04T03:51:55.370Z,19.27
2018-03-04T03:54:22.988Z,22.10
2018-03-04T03:56:50.656Z,19.92
2018-03-04T03:59:18.308Z,19.87
2018-03-04T04:01:46.022Z,17.67
2018-03-04T04:04:13.638Z,19.50
2018-03-04T04:06:41.288Z,23.40
2018-03-04T04:09:08.951Z,22.40
2018-03-04T04:11:36.616Z,22.10
2018-03-04T04:14:04.269Z,20.60
2018-03-04T04:16:31.925Z,19.20
2018-03-04T04:19:00.395Z,20.62
2018-03-04T04:21:29.276Z,15.80
2018-03-04T04:23:56.894Z,19.55
2018-03-04T04:26:24.552Z,21.00
2018-03-04T04:28:52.168Z,20.50
2018-03-04T04:31:19.825Z,18.58
2018-03-04T04:33:48.207Z,19.33
2018-03-04T04:36:16.629Z,20.17
2018-03-04T04:38:44.241Z,20.33
2018-03-04T04:41:11.896Z,21.63
2018-03-04T04:43:39.513Z,12.50
2018-03-04T04:46:07.169Z,22.80
2018-03-04T04:48:34.781Z,17.17
2018-03-04T04:51:03.201Z,21.07
2018-03-04T04:53:31.319Z,14.57
2018-03-04T04:55:58.988Z,20.57
2018-03-04T04:58:27.372Z,20.92
2018-03-04T05:00:56.473Z,19.27
2018-03-04T05:03:24.125Z,23.80
2018-03-04T05:05:52.740Z,16.50
2018-03-04T05:08:20.529Z,12.37
2018-03-04T05:10:48.184Z,14.60
2018-03-04T05:13:15.842Z,17.80
2018-03-04T05:15:43.498Z,22.37
2018-03-04T05:18:11.144Z,22.20
2018-03-04T05:20:38.821Z,20.15
2018-03-04T05:23:06.512Z,20.87
2018-03-04T05:25:34.125Z,21.60
2018-03-04T05:28:01.777Z,15.13
2018-03-04T05:30:29.389Z,23.30
2018-03-04T05:32:57.046Z,21.40
2018-03-04T05:35:24.653Z,21.53
2018-03-04T05:37:52.308Z,22.40
2018-03-04T05:40:19.932Z,16.00
2018-03-04T05:42:47.594Z,19.27
2018-03-04T05:45:15.524Z,19.80
2018-03-04T05:47:43.141Z,25.03
2018-03-04T05:50:10.804Z,18.35
2018-03-04T05:52:38.426Z,21.23
2018-03-04T05:55:06.088Z,19.10
2018-03-04T05:57:33.745Z,18.33
2018-03-04T06:00:01.420Z,15.02
2018-03-04T06:02:29.162Z,19.63
2018-03-04T06:04:56.821Z,22.85
2018-03-04T06:07:24.473Z,22.50
2018-03-04T06:09:52.149Z,23.60
2018-03-04T06:12:19.827Z,22.30
2018-03-04T06:14:47.455Z,18.47
2018-03-04T06:17:15.109Z,18.10
2018-03-04T06:19:42.728Z,15.80
2018-03-04T06:22:10.382Z,20.10
2018-03-04T06:24:38.761Z,24.02
2018-03-04T06:27:07.728Z,22.40
2018-03-04T06:29:37.092Z,17.15
2018-03-04T06:32:04.744Z,19.20
2018-03-04T06:34:32.360Z,21.42
2018-03-04T06:37:00.021Z,19.87
2018-03-04T06:39:28.401Z,24.15
2018-03-04T06:41:56.786Z,20.97
2018-03-04T06:44:25.905Z,23.52
2018-03-04T06:46:53.565Z,23.10
2018-03-04T06:49:21.221Z,24.15
2018-03-04T06:51:48.850Z,24.10
2018-03-04T06:54:17.280Z,20.70
2018-03-04T06:56:44.892Z,22.03
2018-03-04T06:59:13.558Z,20.75
2018-03-04T07:01:41.173Z,21.70
2018-03-04T07:04:08.824Z,22.98
2018-03-04T07:06:36.482Z,24.90
2018-03-04T07:09:04.110Z,24.33
2018-03-04T07:11:31.804Z,24.53
2018-03-04T07:13:59.467Z,20.42
2018-03-04T07:16:27.125Z,22.80
2018-03-04T07:18:54.785Z,25.55
2018-03-04T07:21:22.452Z,25.30
2018-03-04T07:23:50.064Z,23.30
2018-03-04T07:26:17.744Z,22.30
2018-03-04T07:28:46.180Z,26.10
2018-03-04T07:31:13.845Z,22.40
2018-03-04T07:33:42.202Z,27.00
2018-03-04T07:36:09.819Z,23.63
2018-03-04T07:38:37.557Z,25.10
2018-03-04T07:41:06.129Z,15.57
2018-03-04T07:43:33.784Z,25.23
2018-03-04T07:46:01.421Z,25.00
2018-03-04T07:48:29.073Z,26.07
2018-03-04T07:50:56.689Z,27.20
2018-03-04T07:53:24.348Z,24.60
2018-03-04T07:55:52.009Z,19.70
2018-03-04T07:58:19.669Z,25.20
2018-03-04T08:00:47.301Z,20.03
2018-03-04T08:03:14.961Z,18.95
2018-03-04T08:05:42.776Z,22.33
2018-03-04T08:08:10.686Z,25.67
2018-03-04T08:10:38.384Z,25.27
2018-03-04T08:13:06.770Z,28.27
2018-03-04T08:15:35.200Z,25.90
2018-03-04T08:18:02.815Z,27.05
2018-03-04T08:20:30.981Z,22.95
2018-03-04T08:22:59.370Z,23.73
2018-03-04T08:25:31.824Z,20.62
2018-03-04T08:28:11.284Z,26.80
2018-03-04T08:30:38.961Z,25.17
2018-03-04T08:33:06.573Z,30.20
2018-03-04T08:35:34.192Z,27.30
2018-03-04T08:38:01.915Z,28.00
2018-03-04T08:40:30.303Z,14.02
2018-03-04T08:42:58.696Z,27.27
2018-03-04T08:45:28.369Z,19.73
2018-03-04T08:47:56.391Z,27.97
2018-03-04T08:50:24.108Z,27.50
2018-03-04T08:52:52.824Z,25.23
2018-03-04T08:55:20.489Z,19.48
2018-03-04T08:57:48.136Z,29.77
2018-03-04T09:00:15.922Z,27.33
2018-03-04T09:02:43.530Z,29.30
2018-03-04T09:05:11.450Z,30.80
2018-03-04T09:07:41.352Z,30.85
2018-03-04T09:10:11.409Z,28.60
2018-03-04T09:12:40.530Z,28.80
2018-03-04T09:15:09.282Z,25.60
2018-03-04T09:17:38.849Z,31.00
2018-03-04T09:20:07.548Z,29.23
2018-03-04T09:22:35.763Z,28.40
2018-03-04T09:25:03.421Z,25.60
2018-03-04T09:27:32.577Z,28.37
2018-03-04T09:30:05.568Z,30.03
2018-03-04T09:32:38.758Z,27.07
2018-03-04T09:35:12.148Z,29.57
2018-03-04T09:37:40.119Z,28.93
2018-03-04T09:40:07.789Z,31.55
2018-03-04T09:42:35.402Z,28.60
2018-03-04T09:45:03.032Z,30.30
2018-03-04T09:47:31.456Z,30.50
2018-03-04T09:49:59.072Z,31.37
2018-03-04T09:52:27.465Z,28.37
2018-03-04T09:54:55.896Z,33.20
2018-03-04T09:57:23.516Z,30.17
2018-03-04T09:59:51.173Z,24.30
2018-03-04T10:02:19.052Z,31.23
2018-03-04T10:04:46.669Z,28.57
2018-03-04T10:07:15.085Z,31.63
2018-03-04T10:09:42.742Z,27.05
2018-03-04T10:12:10.587Z,24.17
2018-03-04T10:14:39.133Z,32.05
2018-03-04T10:17:06.753Z,33.72
2018-03-04T10:19:34.408Z,30.20
2018-03-04T10:22:02.025Z,33.22
2018-03-04T10:24:29.675Z,31.67
2018-03-04T10:26:57.320Z,20.07
2018-03-04T10:29:26.833Z,33.15
2018-03-04T10:31:54.532Z,32.67
2018-03-04T10:34:23.000Z,33.92
2018-03-04T10:36:50.620Z,30.92
2018-03-04T10:39:18.566Z,33.13
2018-03-04T10:41:46.189Z,30.77
2018-03-04T10:44:14.693Z,31.30
2018-03-04T10:46:42.373Z,23.90
2018-03-04T10:49:10.025Z,30.03
2018-03-04T10:51:37.679Z,31.60
2018-03-04T10:54:05.377Z,34.35
2018-03-04T10:56:33.026Z,34.13
2018-03-04T10:59:00.794Z,31.37
2018-03-04T11:01:28.605Z,32.20
2018-03-04T11:03:56.272Z,31.60
2018-03-04T11:06:24.844Z,32.97
2018-03-04T11:08:52.510Z,29.23
2018-03-04T11:11:20.193Z,32.40
2018-03-04T11:13:50.372Z,32.27
2018-03-04T11:16:18.041Z,33.80
2018-03-04T11:18:45.701Z,27.98
2018-03-04T11:21:13.325Z,34.00
2018-03-04T11:23:40.978Z,32.55
2018-03-04T11:26:08.635Z,33.47
2018-03-04T11:28:36.304Z,33.38
2018-03-04T11:31:04.135Z,33.90
2018-03-04T11:33:31.756Z,33.17
2018-03-04T11:35:59.379Z,34.27
2018-03-04T11:38:27.030Z,34.40
2018-03-04T11:40:54.669Z,31.47
2018-03-04T11:43:22.373Z,34.17
2018-03-04T11:45:49.964Z,34.97
2018-03-04T11:48:17.611Z,33.50
2018-03-04T11:50:45.230Z,34.50
2018-03-04T11:53:12.880Z,31.97
2018-03-04T11:55:40.534Z,33.90
2018-03-04T11:58:08.258Z,35.47
2018-03-04T12:00:35.889Z,35.35
2018-03-04T12:03:03.545Z,31.58
2018-03-04T12:05:31.749Z,33.60
2018-03-04T12:07:59.384Z,33.60
2018-03-04T12:10:27.035Z,35.92
2018-03-04T12:12:54.890Z,33.37
2018-03-04T12:15:22.504Z,33.80
2018-03-04T12:17:50.156Z,34.47
2018-03-04T12:20:18.276Z,34.80
2018-03-04T12:22:45.957Z,30.80
2018-03-04T12:25:13.644Z,32.33
2018-03-04T12:27:41.257Z,35.42
2018-03-04T12:30:08.911Z,37.63
2018-03-04T12:32:36.569Z,34.17
2018-03-04T12:35:04.221Z,34.65
2018-03-04T12:37:31.924Z,33.85
2018-03-04T12:40:00.300Z,37.20
2018-03-04T12:42:27.952Z,34.60
2018-03-04T12:44:55.608Z,34.80
2018-03-04T12:47:23.255Z,34.60
2018-03-04T12:49:51.169Z,37.30
2018-03-04T12:52:19.123Z,30.47
2018-03-04T12:54:47.572Z,36.00
2018-03-04T12:57:15.212Z,35.20
2018-03-04T12:59:45.072Z,35.10
2018-03-04T13:02:12.845Z,37.87
2018-03-04T13:04:41.129Z,34.50
2018-03-04T13:07:08.745Z,27.80
2018-03-04T13:09:36.364Z,34.60
2018-03-04T13:12:05.858Z,36.03
2018-03-04T13:14:33.436Z,35.27
2018-03-04T13:17:01.102Z,35.77
2018-03-04T13:19:28.716Z,35.00
2018-03-04T13:21:56.368Z,36.00
2018-03-04T13:24:23.985Z,40.10
2018-03-04T13:26:51.783Z,37.03
2018-03-04T13:29:19.394Z,29.52
2018-03-04T13:31:47.052Z,28.37
2018-03-04T13:34:14.766Z,34.43
2018-03-04T13:36:42.448Z,35.97
2018-03-04T13:39:10.707Z,34.80
2018-03-04T13:41:38.325Z,29.92
2018-03-04T13:44:05.978Z,35.20
2018-03-04T13:46:33.823Z,32.53
2018-03-04T13:49:02.241Z,38.40
2018-03-04T13:51:29.905Z,36.40
2018-03-04T13:53:57.525Z,30.80
2018-03-04T13:56:25.177Z,30.93
2018-03-04T13:58:52.801Z,35.75
2018-03-04T14:01:20.500Z,30.87
2018-03-04T14:03:54.627Z,34.97
2018-03-04T14:06:28.038Z,32.83
2018-03-04T14:08:55.976Z,36.60
2018-03-04T14:11:24.417Z,36.95
2018-03-04T14:13:52.073Z,37.30
2018-03-04T14:16:20.482Z,36.30
2018-03-04T14:18:48.473Z,35.95
2018-03-04T14:21:16.317Z,37.70
2018-03-04T14:23:44.092Z,35.72
2018-03-04T14:26:12.517Z,37.70
2018-03-04T14:28:40.145Z,38.53
2018-03-04T14:31:07.794Z,38.13
2018-03-04T14:33:35.421Z,35.58
2018-03-04T14:36:03.068Z,37.20
2018-03-04T14:38:30.953Z,37.85
2018-03-04T14:40:58.728Z,34.30
2018-03-04T14:43:26.333Z,35.77
2018-03-04T14:45:54.240Z,35.27
2018-03-04T14:48:22.149Z,35.17
2018-03-04T14:50:50.440Z,36.57
2018-03-04T14:53:18.540Z,37.50
2018-03-04T14:55:46.194Z,39.40
2018-03-04T14:58:13.821Z,35.20
2018-03-04T15:00:41.492Z,35.33
2018-03-04T15:03:09.128Z,35.60
2018-03-04T15:05:36.787Z,36.00
2018-03-04T15:08:04.712Z,36.33
2018-03-04T15:10:32.372Z,40.25
2018-03-04T15:13:00.327Z,34.67
2018-03-04T15:15:28.006Z,35.22
2018-03-04T15:17:55.639Z,34.80
2018-03-04T15:20:23.271Z,36.90
2018-03-04T15:22:51.697Z,35.90
2018-03-04T15:25:19.318Z,37.78
2018-03-04T15:27:47.435Z,35.50
2018-03-04T15:30:15.108Z,36.30
2018-03-04T15:32:42.782Z,37.17
2018-03-04T15:35:10.504Z,35.37
2018-03-04T15:37:38.146Z,36.27
2018-03-04T15:40:05.804Z,36.30
2018-03-04T15:42:33.416Z,28.30
2018-03-04T15:45:01.072Z,37.30
2018-03-04T15:47:28.685Z,36.00
2018-03-04T15:49:56.352Z,36.75
2018-03-04T15:52:23.992Z,36.17
2018-03-04T15:54:52.296Z,36.20
2018-03-04T15:57:19.918Z,36.10
2018-03-04T15:59:47.573Z,37.65
2018-03-04T16:02:15.228Z,35.87
2018-03-04T16:04:42.943Z,37.03
2018-03-04T16:07:10.589Z,35.90
2018-03-04T16:09:38.818Z,34.53
2018-03-04T16:12:06.703Z,37.55
2018-03-04T16:14:34.353Z,38.25
2018-03-04T16:17:01.967Z,38.27
2018-03-04T16:19:29.632Z,32.88
2018-03-04T16:21:57.502Z,38.80
2018-03-04T16:24:25.124Z,37.20
2018-03-04T16:26:53.025Z,34.93
2018-03-04T16:29:20.675Z,35.67
2018-03-04T16:31:48.289Z,36.90
2018-03-04T16:34:16.705Z,35.65
2018-03-04T16:36:44.320Z,37.17
2018-03-04T16:39:12.012Z,36.85
2018-03-04T16:41:39.664Z,36.27
2018-03-04T16:44:07.365Z,37.60
2018-03-04T16:46:35.125Z,37.03
2018-03-04T16:49:02.978Z,37.28
2018-03-04T16:51:30.685Z,36.33
2018-03-04T16:53:58.537Z,34.87
2018-03-04T16:56:26.182Z,36.70
2018-03-04T16:58:54.436Z,39.13
2018-03-04T17:01:22.045Z,37.33
2018-03-04T17:03:50.459Z,37.50
2018-03-04T17:06:18.077Z,38.13
2018-03-04T17:08:46.256Z,34.22
2018-03-04T17:11:14.777Z,36.60
2018-03-04T17:13:42.907Z,35.63
2018-03-04T17:16:11.397Z,35.60
2018-03-04T17:18:39.001Z,39.97
2018-03-04T17:21:06.709Z,36.43
2018-03-04T17:23:35.089Z,34.93
2018-03-04T17:26:02.756Z,37.55
2018-03-04T17:28:31.698Z,38.13
2018-03-04T17:30:59.553Z,38.30
2018-03-04T17:33:28.456Z,35.97
2018-03-04T17:35:56.103Z,37.27
2018-03-04T17:38:23.800Z,39.93
2018-03-04T17:40:52.226Z,37.23
2018-03-04T17:43:19.881Z,37.90
2018-03-04T17:45:47.544Z,38.57
2018-03-04T17:48:15.195Z,36.30
2018-03-04T17:50:42.861Z,38.80
2018-03-04T17:53:10.477Z,39.97
2018-03-04T17:55:38.325Z,39.80
2018-03-04T17:58:05.961Z,38.60
2018-03-04T18:00:33.612Z,39.70
2018-03-04T18:03:01.225Z,37.57
2018-03-04T18:05:29.653Z,35.73
2018-03-04T18:07:57.325Z,36.57
2018-03-04T18:10:25.176Z,28.97
2018-03-04T18:12:52.989Z,37.72
2018-03-04T18:15:23.389Z,36.30
2018-03-04T18:17:51.372Z,35.13
2018-03-04T18:20:19.050Z,38.20
2018-03-04T18:22:47.488Z,36.07
2018-03-04T18:25:16.349Z,35.80
2018-03-04T18:27:44.152Z,38.40
2018-03-04T18:30:12.624Z,36.72
2018-03-04T18:32:41.356Z,35.80
2018-03-04T18:35:09.034Z,33.97
2018-03-04T18:37:36.654Z,34.63
2018-03-04T18:40:04.309Z,38.03
2018-03-04T18:42:32.697Z,34.42
2018-03-04T18:45:01.169Z,39.88
2018-03-04T18:47:28.785Z,36.30
2018-03-04T18:49:56.432Z,38.70
2018-03-04T18:52:24.049Z,36.73
2018-03-04T18:54:52.667Z,36.93
2018-03-04T18:57:20.969Z,40.30
2018-03-04T18:59:48.844Z,38.07
2018-03-04T19:02:16.466Z,37.60
2018-03-04T19:04:44.286Z,38.60
2018-03-04T19:07:11.942Z,41.23
2018-03-04T19:09:40.206Z,35.87
2018-03-04T19:12:07.870Z,38.33
2018-03-04T19:14:35.523Z,35.50
2018-03-04T19:17:03.184Z,38.77
2018-03-04T19:19:30.856Z,38.93
2018-03-04T19:21:58.710Z,38.60
2018-03-04T19:24:27.346Z,36.03
2018-03-04T19:26:55.716Z,34.10
2018-03-04T19:29:24.899Z,39.70
2018-03-04T19:31:52.792Z,38.15
2018-03-04T19:34:20.473Z,39.13
2018-03-04T19:36:48.117Z,40.40
2018-03-04T19:39:15.979Z,40.70
2018-03-04T19:41:44.324Z,36.27
2018-03-04T19:44:12.130Z,40.17
2018-03-04T19:46:40.028Z,37.17
2018-03-04T19:49:07.678Z,37.60
2018-03-04T19:51:35.782Z,37.70
2018-03-04T19:54:03.842Z,35.80
2018-03-04T19:56:32.014Z,38.57
2018-03-04T19:58:59.730Z,37.43
2018-03-04T20:01:27.433Z,36.83
2018-03-04T20:03:55.045Z,38.75
2018-03-04T20:06:22.960Z,34.60
2018-03-04T20:08:50.573Z,37.10
2018-03-04T20:11:18.217Z,33.13
2018-03-04T20:13:47.137Z,37.43
2018-03-04T20:16:15.234Z,38.95
2018-03-04T20:18:43.003Z,40.53
2018-03-04T20:21:10.648Z,34.60
2018-03-04T20:23:38.309Z,36.50
2018-03-04T20:26:06.074Z,35.27
2018-03-04T20:28:35.140Z,38.47
2018-03-04T20:31:02.757Z,38.50
2018-03-04T20:33:30.405Z,38.97
2018-03-04T20:35:58.248Z,37.00
2018-03-04T20:38:26.114Z,37.10
2018-03-04T20:40:54.849Z,35.07
2018-03-04T20:43:22.497Z,34.50
2018-03-04T20:45:50.114Z,38.45
2018-03-04T20:48:17.810Z,39.85
2018-03-04T20:50:45.626Z,36.03
2018-03-04T20:53:13.604Z,37.05
2018-03-04T20:55:41.285Z,38.50
2018-03-04T20:58:08.972Z,33.80
2018-03-04T21:00:36.595Z,38.10
2018-03-04T21:03:04.848Z,36.87
2018-03-04T21:05:32.736Z,39.33
2018-03-04T21:08:00.820Z,35.38
2018-03-04T21:10:28.656Z,38.38
2018-03-04T21:12:56.309Z,44.60
2018-03-04T21:15:24.005Z,37.33
2018-03-04T21:17:51.804Z,35.28
2018-03-04T21:20:20.485Z,32.57
2018-03-04T21:22:49.229Z,33.15
2018-03-04T21:25:16.881Z,35.43
2018-03-04T21:27:44.721Z,36.20
2018-03-04T21:30:12.939Z,38.90
2018-03-04T21:32:40.598Z,29.67
2018-03-04T21:35:09.589Z,36.20
2018-03-04T21:37:37.207Z,35.53
2018-03-04T21:40:04.863Z,35.10
2018-03-04T21:42:32.482Z,26.12
2018-03-04T21:45:00.134Z,38.37
2018-03-04T21:47:27.750Z,39.15
2018-03-04T21:49:55.395Z,39.60
2018-03-04T21:52:23.664Z,34.88
2018-03-04T21:54:51.370Z,35.83
2018-03-04T21:57:19.029Z,37.80
2018-03-04T21:59:46.677Z,35.60
2018-03-04T22:02:14.303Z,37.30
2018-03-04T22:04:43.298Z,37.10
2018-03-04T22:07:11.736Z,33.97
2018-03-04T22:09:39.348Z,39.23
2018-03-04T22:12:07.161Z,39.87
2018-03-04T22:14:34.805Z,32.10
2018-03-04T22:17:03.813Z,34.25
2018-03-04T22:19:31.478Z,37.33
2018-03-04T22:21:59.096Z,37.43
2018-03-04T22:24:26.758Z,39.78
2018-03-04T22:26:54.414Z,36.60
2018-03-04T22:29:22.048Z,33.05
2018-03-04T22:31:49.976Z,35.88
2018-03-04T22:34:17.621Z,35.40
2018-03-04T22:36:45.237Z,37.60
2018-03-04T22:39:13.654Z,39.33
2018-03-04T22:41:41.432Z,37.07
2018-03-04T22:44:09.431Z,36.63
2018-03-04T22:46:37.816Z,37.97
2018-03-04T22:49:06.246Z,36.87
2018-03-04T22:51:34.019Z,33.93
2018-03-04T22:54:01.697Z,34.50
2018-03-04T22:56:29.316Z,32.25
2018-03-04T22:58:57.159Z,35.70
2018-03-04T23:01:24.992Z,37.72
2018-03-04T23:03:52.645Z,33.05
2018-03-04T23:06:20.275Z,34.47
2018-03-04T23:08:48.745Z,35.78
2018-03-04T23:11:16.361Z,32.97
2018-03-04T23:13:44.780Z,37.70
2018-03-04T23:16:12.564Z,35.13
2018-03-04T23:18:40.184Z,35.13
2018-03-04T23:21:07.808Z,35.70
2018-03-04T23:23:35.467Z,34.97
2018-03-04T23:26:03.304Z,34.25
2018-03-04T23:28:31.388Z,35.63
2018-03-04T23:30:59.034Z,34.63
2018-03-04T23:33:26.690Z,34.33
2018-03-04T23:35:54.333Z,34.97
2018-03-04T23:38:22.119Z,35.40
2018-03-04T23:40:49.783Z,34.30
2018-03-04T23:43:17.649Z,20.23
2018-03-04T23:45:45.299Z,32.20
2018-03-04T23:48:12.953Z,34.17
2018-03-04T23:50:40.627Z,31.60
2018-03-04T23:53:08.293Z,30.50
2018-03-04T23:55:35.946Z,33.60
2018-03-04T23:58:03.597Z,34.20
